sensor_id;sensor_type;location;lat;lon;timestamp;P1;durP1;ratioP1;P2;durP2;ratioP2
34765;SDS011;20984;43.508;1.504;2022-07-04T00:00:22;7.25;;;4.18;;
34765;SDS011;20984;43.508;1.504;2022-07-04T00:02:49;8.00;;;3.85;;
34765;SDS011;20984;43.508;1.504;2022-07-04T00:05:16;7.18;;;4.20;;
34765;SDS011;20984;43.508;1.504;2022-07-04T00:07:46;9.02;;;4.35;;
34765;SDS011;20984;43.508;1.504;2022-07-04T00:10:14;11.37;;;3.93;;
34765;SDS011;20984;43.508;1.504;2022-07-04T00:12:42;7.18;;;3.80;;
34765;SDS011;20984;43.508;1.504;2022-07-04T00:15:09;6.90;;;3.47;;
34765;SDS011;20984;43.508;1.504;2022-07-04T00:17:35;14.82;;;4.68;;
34765;SDS011;20984;43.508;1.504;2022-07-04T00:20:01;4.97;;;3.30;;
34765;SDS011;20984;43.508;1.504;2022-07-04T00:22:28;10.55;;;3.42;;
34765;SDS011;20984;43.508;1.504;2022-07-04T00:24:54;6.55;;;3.20;;
34765;SDS011;20984;43.508;1.504;2022-07-04T00:27:19;8.80;;;2.88;;
34765;SDS011;20984;43.508;1.504;2022-07-04T00:29:45;17.33;;;3.58;;
34765;SDS011;20984;43.508;1.504;2022-07-04T00:32:11;8.35;;;3.55;;
34765;SDS011;20984;43.508;1.504;2022-07-04T00:34:37;6.57;;;2.95;;
34765;SDS011;20984;43.508;1.504;2022-07-04T00:37:03;5.75;;;2.50;;
34765;SDS011;20984;43.508;1.504;2022-07-04T00:39:29;9.43;;;3.63;;
34765;SDS011;20984;43.508;1.504;2022-07-04T00:41:55;10.32;;;2.90;;
34765;SDS011;20984;43.508;1.504;2022-07-04T00:44:20;5.50;;;3.10;;
34765;SDS011;20984;43.508;1.504;2022-07-04T00:46:47;5.93;;;3.30;;
34765;SDS011;20984;43.508;1.504;2022-07-04T00:49:13;6.75;;;3.08;;
34765;SDS011;20984;43.508;1.504;2022-07-04T00:51:41;6.43;;;2.80;;
34765;SDS011;20984;43.508;1.504;2022-07-04T00:54:09;8.13;;;3.00;;
34765;SDS011;20984;43.508;1.504;2022-07-04T00:56:36;12.75;;;4.13;;
34765;SDS011;20984;43.508;1.504;2022-07-04T00:59:04;6.90;;;3.03;;
34765;SDS011;20984;43.508;1.504;2022-07-04T01:01:31;7.55;;;3.28;;
34765;SDS011;20984;43.508;1.504;2022-07-04T01:03:57;5.07;;;2.83;;
34765;SDS011;20984;43.508;1.504;2022-07-04T01:06:23;6.57;;;3.17;;
34765;SDS011;20984;43.508;1.504;2022-07-04T01:08:49;6.43;;;2.88;;
34765;SDS011;20984;43.508;1.504;2022-07-04T01:11:15;5.43;;;2.78;;
34765;SDS011;20984;43.508;1.504;2022-07-04T01:13:42;14.98;;;3.38;;
34765;SDS011;20984;43.508;1.504;2022-07-04T01:16:09;7.53;;;3.08;;
34765;SDS011;20984;43.508;1.504;2022-07-04T01:18:36;5.95;;;2.88;;
34765;SDS011;20984;43.508;1.504;2022-07-04T01:21:02;9.10;;;3.45;;
34765;SDS011;20984;43.508;1.504;2022-07-04T01:23:29;8.80;;;3.50;;
34765;SDS011;20984;43.508;1.504;2022-07-04T01:25:55;4.78;;;2.83;;
34765;SDS011;20984;43.508;1.504;2022-07-04T01:28:22;6.38;;;3.63;;
34765;SDS011;20984;43.508;1.504;2022-07-04T01:30:49;10.88;;;2.97;;
34765;SDS011;20984;43.508;1.504;2022-07-04T01:33:15;6.97;;;2.90;;
34765;SDS011;20984;43.508;1.504;2022-07-04T01:35:45;9.30;;;3.13;;
34765;SDS011;20984;43.508;1.504;2022-07-04T01:38:11;5.35;;;3.17;;
34765;SDS011;20984;43.508;1.504;2022-07-04T01:40:37;8.90;;;2.85;;
34765;SDS011;20984;43.508;1.504;2022-07-04T01:43:03;5.13;;;2.53;;
34765;SDS011;20984;43.508;1.504;2022-07-04T01:45:29;12.43;;;3.00;;
34765;SDS011;20984;43.508;1.504;2022-07-04T01:47:58;3.92;;;2.70;;
34765;SDS011;20984;43.508;1.504;2022-07-04T01:50:24;8.45;;;3.05;;
34765;SDS011;20984;43.508;1.504;2022-07-04T01:52:50;8.82;;;3.35;;
34765;SDS011;20984;43.508;1.504;2022-07-04T01:55:16;5.25;;;3.25;;
34765;SDS011;20984;43.508;1.504;2022-07-04T01:57:41;14.18;;;2.90;;
34765;SDS011;20984;43.508;1.504;2022-07-04T02:00:08;4.97;;;3.35;;
34765;SDS011;20984;43.508;1.504;2022-07-04T02:02:54;7.65;;;3.42;;
34765;SDS011;20984;43.508;1.504;2022-07-04T02:05:21;8.60;;;3.78;;
34765;SDS011;20984;43.508;1.504;2022-07-04T02:07:47;10.80;;;4.15;;
34765;SDS011;20984;43.508;1.504;2022-07-04T02:10:13;12.18;;;3.22;;
34765;SDS011;20984;43.508;1.504;2022-07-04T02:12:39;9.45;;;3.20;;
34765;SDS011;20984;43.508;1.504;2022-07-04T02:15:24;6.88;;;3.33;;
34765;SDS011;20984;43.508;1.504;2022-07-04T02:17:50;5.20;;;2.53;;
34765;SDS011;20984;43.508;1.504;2022-07-04T02:20:16;6.68;;;3.70;;
34765;SDS011;20984;43.508;1.504;2022-07-04T02:22:42;6.47;;;3.10;;
34765;SDS011;20984;43.508;1.504;2022-07-04T02:25:08;10.88;;;2.90;;
34765;SDS011;20984;43.508;1.504;2022-07-04T02:27:36;6.15;;;3.03;;
34765;SDS011;20984;43.508;1.504;2022-07-04T02:30:03;13.52;;;5.13;;
34765;SDS011;20984;43.508;1.504;2022-07-04T02:32:29;12.35;;;4.20;;
34765;SDS011;20984;43.508;1.504;2022-07-04T02:34:55;8.48;;;3.30;;
34765;SDS011;20984;43.508;1.504;2022-07-04T02:37:21;6.20;;;3.75;;
34765;SDS011;20984;43.508;1.504;2022-07-04T02:39:47;15.57;;;4.72;;
34765;SDS011;20984;43.508;1.504;2022-07-04T02:42:13;6.53;;;3.40;;
34765;SDS011;20984;43.508;1.504;2022-07-04T02:44:38;8.48;;;3.35;;
34765;SDS011;20984;43.508;1.504;2022-07-04T02:47:04;8.95;;;3.67;;
34765;SDS011;20984;43.508;1.504;2022-07-04T02:49:30;6.38;;;3.17;;
34765;SDS011;20984;43.508;1.504;2022-07-04T02:51:56;8.52;;;3.50;;
34765;SDS011;20984;43.508;1.504;2022-07-04T02:54:22;6.93;;;3.63;;
34765;SDS011;20984;43.508;1.504;2022-07-04T02:56:49;9.23;;;3.17;;
34765;SDS011;20984;43.508;1.504;2022-07-04T02:59:14;13.57;;;3.40;;
34765;SDS011;20984;43.508;1.504;2022-07-04T03:01:40;7.35;;;3.10;;
34765;SDS011;20984;43.508;1.504;2022-07-04T03:04:06;9.23;;;3.83;;
34765;SDS011;20984;43.508;1.504;2022-07-04T03:06:32;5.97;;;3.65;;
34765;SDS011;20984;43.508;1.504;2022-07-04T03:08:58;3.83;;;3.10;;
34765;SDS011;20984;43.508;1.504;2022-07-04T03:11:23;11.15;;;3.55;;
34765;SDS011;20984;43.508;1.504;2022-07-04T03:13:49;7.35;;;4.15;;
34765;SDS011;20984;43.508;1.504;2022-07-04T03:16:15;8.23;;;3.50;;
34765;SDS011;20984;43.508;1.504;2022-07-04T03:18:41;9.82;;;3.58;;
34765;SDS011;20984;43.508;1.504;2022-07-04T03:21:07;8.40;;;3.88;;
34765;SDS011;20984;43.508;1.504;2022-07-04T03:23:33;5.88;;;3.28;;
34765;SDS011;20984;43.508;1.504;2022-07-04T03:25:59;11.07;;;4.40;;
34765;SDS011;20984;43.508;1.504;2022-07-04T03:28:26;8.00;;;4.32;;
34765;SDS011;20984;43.508;1.504;2022-07-04T03:30:52;8.40;;;3.28;;
34765;SDS011;20984;43.508;1.504;2022-07-04T03:33:18;8.85;;;3.67;;
34765;SDS011;20984;43.508;1.504;2022-07-04T03:35:44;11.70;;;3.90;;
34765;SDS011;20984;43.508;1.504;2022-07-04T03:38:10;11.35;;;4.15;;
34765;SDS011;20984;43.508;1.504;2022-07-04T03:40:37;9.02;;;3.63;;
34765;SDS011;20984;43.508;1.504;2022-07-04T03:43:03;7.82;;;4.32;;
34765;SDS011;20984;43.508;1.504;2022-07-04T03:45:31;14.30;;;4.80;;
34765;SDS011;20984;43.508;1.504;2022-07-04T03:47:57;6.03;;;3.75;;
34765;SDS011;20984;43.508;1.504;2022-07-04T03:50:24;24.08;;;5.13;;
34765;SDS011;20984;43.508;1.504;2022-07-04T03:52:50;10.25;;;5.28;;
34765;SDS011;20984;43.508;1.504;2022-07-04T03:55:16;9.05;;;4.80;;
34765;SDS011;20984;43.508;1.504;2022-07-04T03:57:42;6.30;;;3.83;;
34765;SDS011;20984;43.508;1.504;2022-07-04T04:00:08;8.13;;;3.92;;
34765;SDS011;20984;43.508;1.504;2022-07-04T04:02:35;8.32;;;4.32;;
34765;SDS011;20984;43.508;1.504;2022-07-04T04:05:02;10.65;;;4.60;;
34765;SDS011;20984;43.508;1.504;2022-07-04T04:07:47;8.75;;;4.00;;
34765;SDS011;20984;43.508;1.504;2022-07-04T04:10:13;26.13;;;4.55;;
34765;SDS011;20984;43.508;1.504;2022-07-04T04:12:38;10.95;;;4.57;;
34765;SDS011;20984;43.508;1.504;2022-07-04T04:15:04;8.55;;;3.95;;
34765;SDS011;20984;43.508;1.504;2022-07-04T04:17:31;6.88;;;4.88;;
34765;SDS011;20984;43.508;1.504;2022-07-04T04:19:56;6.70;;;4.32;;
34765;SDS011;20984;43.508;1.504;2022-07-04T04:22:22;8.48;;;4.95;;
34765;SDS011;20984;43.508;1.504;2022-07-04T04:24:48;11.25;;;4.47;;
34765;SDS011;20984;43.508;1.504;2022-07-04T04:27:14;14.65;;;5.68;;
34765;SDS011;20984;43.508;1.504;2022-07-04T04:29:40;8.75;;;4.22;;
34765;SDS011;20984;43.508;1.504;2022-07-04T04:32:05;7.47;;;4.10;;
34765;SDS011;20984;43.508;1.504;2022-07-04T04:34:32;8.40;;;3.70;;
34765;SDS011;20984;43.508;1.504;2022-07-04T04:36:59;12.15;;;4.05;;
34765;SDS011;20984;43.508;1.504;2022-07-04T04:39:25;15.32;;;5.05;;
34765;SDS011;20984;43.508;1.504;2022-07-04T04:41:51;7.65;;;3.63;;
34765;SDS011;20984;43.508;1.504;2022-07-04T04:44:18;12.93;;;4.28;;
34765;SDS011;20984;43.508;1.504;2022-07-04T04:46:44;13.07;;;4.45;;
34765;SDS011;20984;43.508;1.504;2022-07-04T04:49:11;7.95;;;4.28;;
34765;SDS011;20984;43.508;1.504;2022-07-04T04:51:37;12.10;;;4.13;;
34765;SDS011;20984;43.508;1.504;2022-07-04T04:54:03;8.75;;;4.32;;
34765;SDS011;20984;43.508;1.504;2022-07-04T04:56:29;8.07;;;4.68;;
34765;SDS011;20984;43.508;1.504;2022-07-04T04:58:55;14.55;;;5.28;;
34765;SDS011;20984;43.508;1.504;2022-07-04T05:01:21;12.45;;;4.78;;
34765;SDS011;20984;43.508;1.504;2022-07-04T05:03:47;9.70;;;4.40;;
34765;SDS011;20984;43.508;1.504;2022-07-04T05:06:13;8.95;;;4.30;;
34765;SDS011;20984;43.508;1.504;2022-07-04T05:08:39;11.63;;;5.07;;
34765;SDS011;20984;43.508;1.504;2022-07-04T05:11:04;11.48;;;4.65;;
34765;SDS011;20984;43.508;1.504;2022-07-04T05:13:30;7.55;;;5.07;;
34765;SDS011;20984;43.508;1.504;2022-07-04T05:15:56;13.38;;;6.00;;
34765;SDS011;20984;43.508;1.504;2022-07-04T05:18:23;8.73;;;4.97;;
34765;SDS011;20984;43.508;1.504;2022-07-04T05:20:48;11.63;;;4.93;;
34765;SDS011;20984;43.508;1.504;2022-07-04T05:23:14;8.43;;;5.13;;
34765;SDS011;20984;43.508;1.504;2022-07-04T05:25:40;13.88;;;5.55;;
34765;SDS011;20984;43.508;1.504;2022-07-04T05:28:06;14.02;;;5.05;;
34765;SDS011;20984;43.508;1.504;2022-07-04T05:30:32;9.23;;;4.47;;
34765;SDS011;20984;43.508;1.504;2022-07-04T05:32:58;8.85;;;4.60;;
34765;SDS011;20984;43.508;1.504;2022-07-04T05:35:25;11.80;;;4.80;;
34765;SDS011;20984;43.508;1.504;2022-07-04T05:37:52;11.73;;;4.90;;
34765;SDS011;20984;43.508;1.504;2022-07-04T05:40:19;8.13;;;4.90;;
34765;SDS011;20984;43.508;1.504;2022-07-04T05:42:46;11.25;;;4.57;;
34765;SDS011;20984;43.508;1.504;2022-07-04T05:45:13;12.13;;;4.57;;
34765;SDS011;20984;43.508;1.504;2022-07-04T05:47:39;7.40;;;3.95;;
34765;SDS011;20984;43.508;1.504;2022-07-04T05:50:05;10.45;;;4.65;;
34765;SDS011;20984;43.508;1.504;2022-07-04T05:52:31;10.60;;;5.47;;
34765;SDS011;20984;43.508;1.504;2022-07-04T05:54:57;7.93;;;4.25;;
34765;SDS011;20984;43.508;1.504;2022-07-04T05:57:23;7.70;;;4.43;;
34765;SDS011;20984;43.508;1.504;2022-07-04T05:59:49;8.05;;;4.90;;
34765;SDS011;20984;43.508;1.504;2022-07-04T06:02:15;8.05;;;3.78;;
34765;SDS011;20984;43.508;1.504;2022-07-04T06:04:41;10.85;;;4.32;;
34765;SDS011;20984;43.508;1.504;2022-07-04T06:07:08;19.08;;;4.63;;
34765;SDS011;20984;43.508;1.504;2022-07-04T06:09:34;8.55;;;4.68;;
34765;SDS011;20984;43.508;1.504;2022-07-04T06:12:01;9.40;;;4.22;;
34765;SDS011;20984;43.508;1.504;2022-07-04T06:14:27;9.63;;;3.80;;
34765;SDS011;20984;43.508;1.504;2022-07-04T06:16:53;13.98;;;4.30;;
34765;SDS011;20984;43.508;1.504;2022-07-04T06:19:19;10.98;;;4.47;;
34765;SDS011;20984;43.508;1.504;2022-07-04T06:21:44;10.73;;;4.28;;
34765;SDS011;20984;43.508;1.504;2022-07-04T06:24:10;11.43;;;5.05;;
34765;SDS011;20984;43.508;1.504;2022-07-04T06:26:36;8.02;;;3.95;;
34765;SDS011;20984;43.508;1.504;2022-07-04T06:29:02;8.23;;;3.72;;
34765;SDS011;20984;43.508;1.504;2022-07-04T06:31:28;7.43;;;3.63;;
34765;SDS011;20984;43.508;1.504;2022-07-04T06:33:54;11.07;;;3.58;;
34765;SDS011;20984;43.508;1.504;2022-07-04T06:36:38;9.30;;;4.18;;
34765;SDS011;20984;43.508;1.504;2022-07-04T06:39:04;10.07;;;3.60;;
34765;SDS011;20984;43.508;1.504;2022-07-04T06:41:30;11.75;;;4.10;;
34765;SDS011;20984;43.508;1.504;2022-07-04T06:43:55;10.52;;;3.33;;
34765;SDS011;20984;43.508;1.504;2022-07-04T06:46:21;9.32;;;3.65;;
34765;SDS011;20984;43.508;1.504;2022-07-04T06:48:47;20.35;;;4.30;;
34765;SDS011;20984;43.508;1.504;2022-07-04T06:51:13;8.93;;;3.55;;
34765;SDS011;20984;43.508;1.504;2022-07-04T06:53:42;9.25;;;3.97;;
34765;SDS011;20984;43.508;1.504;2022-07-04T06:56:10;10.90;;;3.72;;
34765;SDS011;20984;43.508;1.504;2022-07-04T06:58:36;14.30;;;3.95;;
34765;SDS011;20984;43.508;1.504;2022-07-04T07:01:02;6.50;;;3.55;;
34765;SDS011;20984;43.508;1.504;2022-07-04T07:03:28;9.90;;;3.38;;
34765;SDS011;20984;43.508;1.504;2022-07-04T07:05:54;5.90;;;4.10;;
34765;SDS011;20984;43.508;1.504;2022-07-04T07:08:21;9.05;;;3.53;;
34765;SDS011;20984;43.508;1.504;2022-07-04T07:10:47;6.88;;;3.70;;
34765;SDS011;20984;43.508;1.504;2022-07-04T07:13:13;6.40;;;3.63;;
34765;SDS011;20984;43.508;1.504;2022-07-04T07:15:39;5.95;;;3.05;;
34765;SDS011;20984;43.508;1.504;2022-07-04T07:18:05;12.00;;;4.03;;
34765;SDS011;20984;43.508;1.504;2022-07-04T07:20:31;9.57;;;3.47;;
34765;SDS011;20984;43.508;1.504;2022-07-04T07:22:57;10.80;;;3.60;;
34765;SDS011;20984;43.508;1.504;2022-07-04T07:25:26;9.55;;;3.67;;
34765;SDS011;20984;43.508;1.504;2022-07-04T07:27:52;6.38;;;2.95;;
34765;SDS011;20984;43.508;1.504;2022-07-04T07:30:17;9.68;;;3.47;;
34765;SDS011;20984;43.508;1.504;2022-07-04T07:32:43;8.07;;;3.22;;
34765;SDS011;20984;43.508;1.504;2022-07-04T07:35:09;8.38;;;3.30;;
34765;SDS011;20984;43.508;1.504;2022-07-04T07:37:35;6.40;;;3.28;;
34765;SDS011;20984;43.508;1.504;2022-07-04T07:40:01;9.55;;;3.45;;
34765;SDS011;20984;43.508;1.504;2022-07-04T07:42:27;13.98;;;3.88;;
34765;SDS011;20984;43.508;1.504;2022-07-04T07:44:53;6.55;;;3.30;;
34765;SDS011;20984;43.508;1.504;2022-07-04T07:47:19;6.95;;;3.03;;
34765;SDS011;20984;43.508;1.504;2022-07-04T07:49:45;8.15;;;2.75;;
34765;SDS011;20984;43.508;1.504;2022-07-04T07:52:13;7.68;;;3.05;;
34765;SDS011;20984;43.508;1.504;2022-07-04T07:54:39;12.80;;;3.92;;
34765;SDS011;20984;43.508;1.504;2022-07-04T07:57:05;11.18;;;3.35;;
34765;SDS011;20984;43.508;1.504;2022-07-04T07:59:31;12.80;;;3.10;;
34765;SDS011;20984;43.508;1.504;2022-07-04T08:01:57;6.60;;;2.70;;
34765;SDS011;20984;43.508;1.504;2022-07-04T08:04:23;8.50;;;2.65;;
34765;SDS011;20984;43.508;1.504;2022-07-04T08:07:02;7.57;;;2.97;;
34765;SDS011;20984;43.508;1.504;2022-07-04T08:09:29;7.43;;;3.03;;
34765;SDS011;20984;43.508;1.504;2022-07-04T08:11:56;17.92;;;4.18;;
34765;SDS011;20984;43.508;1.504;2022-07-04T08:14:23;7.57;;;3.17;;
34765;SDS011;20984;43.508;1.504;2022-07-04T08:16:49;8.60;;;2.83;;
34765;SDS011;20984;43.508;1.504;2022-07-04T08:19:15;9.82;;;2.75;;
34765;SDS011;20984;43.508;1.504;2022-07-04T08:21:40;8.00;;;2.80;;
34765;SDS011;20984;43.508;1.504;2022-07-04T08:24:06;9.40;;;2.75;;
34765;SDS011;20984;43.508;1.504;2022-07-04T08:26:32;8.43;;;3.03;;
34765;SDS011;20984;43.508;1.504;2022-07-04T08:28:58;10.45;;;3.47;;
34765;SDS011;20984;43.508;1.504;2022-07-04T08:31:25;9.90;;;3.05;;
34765;SDS011;20984;43.508;1.504;2022-07-04T08:33:52;7.82;;;3.22;;
34765;SDS011;20984;43.508;1.504;2022-07-04T08:36:18;7.13;;;3.72;;
34765;SDS011;20984;43.508;1.504;2022-07-04T08:38:44;10.95;;;3.35;;
34765;SDS011;20984;43.508;1.504;2022-07-04T08:41:10;10.00;;;4.07;;
34765;SDS011;20984;43.508;1.504;2022-07-04T08:43:37;10.02;;;3.92;;
34765;SDS011;20984;43.508;1.504;2022-07-04T08:46:04;14.38;;;4.22;;
34765;SDS011;20984;43.508;1.504;2022-07-04T08:48:31;11.02;;;4.00;;
34765;SDS011;20984;43.508;1.504;2022-07-04T08:51:08;9.18;;;3.38;;
34765;SDS011;20984;43.508;1.504;2022-07-04T08:53:39;12.52;;;3.85;;
34765;SDS011;20984;43.508;1.504;2022-07-04T08:56:17;10.32;;;4.47;;
34765;SDS011;20984;43.508;1.504;2022-07-04T08:59:03;5.97;;;3.78;;
34765;SDS011;20984;43.508;1.504;2022-07-04T09:01:30;9.82;;;4.40;;
34765;SDS011;20984;43.508;1.504;2022-07-04T09:03:56;11.20;;;4.72;;
34765;SDS011;20984;43.508;1.504;2022-07-04T09:06:23;15.05;;;7.90;;
34765;SDS011;20984;43.508;1.504;2022-07-04T09:08:49;13.93;;;5.50;;
34765;SDS011;20984;43.508;1.504;2022-07-04T09:11:17;11.50;;;4.25;;
34765;SDS011;20984;43.508;1.504;2022-07-04T09:13:43;13.35;;;4.45;;
34765;SDS011;20984;43.508;1.504;2022-07-04T09:16:09;13.45;;;4.05;;
34765;SDS011;20984;43.508;1.504;2022-07-04T09:18:36;11.23;;;4.45;;
34765;SDS011;20984;43.508;1.504;2022-07-04T09:21:06;9.40;;;3.97;;
34765;SDS011;20984;43.508;1.504;2022-07-04T09:23:35;16.15;;;5.22;;
34765;SDS011;20984;43.508;1.504;2022-07-04T09:28:39;12.82;;;5.00;;
34765;SDS011;20984;43.508;1.504;2022-07-04T09:31:17;10.38;;;5.80;;
34765;SDS011;20984;43.508;1.504;2022-07-04T09:33:48;10.75;;;4.82;;
34765;SDS011;20984;43.508;1.504;2022-07-04T09:36:15;9.00;;;5.32;;
34765;SDS011;20984;43.508;1.504;2022-07-04T09:38:44;9.00;;;4.95;;
34765;SDS011;20984;43.508;1.504;2022-07-04T09:41:10;10.95;;;5.45;;
34765;SDS011;20984;43.508;1.504;2022-07-04T09:44:00;9.98;;;4.60;;
34765;SDS011;20984;43.508;1.504;2022-07-04T09:46:31;10.52;;;4.75;;
34765;SDS011;20984;43.508;1.504;2022-07-04T09:48:58;13.10;;;5.38;;
34765;SDS011;20984;43.508;1.504;2022-07-04T09:51:37;13.43;;;4.97;;
34765;SDS011;20984;43.508;1.504;2022-07-04T09:56:53;13.80;;;4.75;;
34765;SDS011;20984;43.508;1.504;2022-07-04T09:59:20;11.70;;;4.60;;
34765;SDS011;20984;43.508;1.504;2022-07-04T10:01:48;9.20;;;5.10;;
34765;SDS011;20984;43.508;1.504;2022-07-04T10:04:14;8.82;;;4.78;;
34765;SDS011;20984;43.508;1.504;2022-07-04T10:06:41;11.00;;;5.28;;
34765;SDS011;20984;43.508;1.504;2022-07-04T10:09:12;8.13;;;4.88;;
34765;SDS011;20984;43.508;1.504;2022-07-04T10:11:44;8.15;;;4.70;;
34765;SDS011;20984;43.508;1.504;2022-07-04T10:14:12;10.95;;;4.82;;
34765;SDS011;20984;43.508;1.504;2022-07-04T10:16:39;10.55;;;5.00;;
34765;SDS011;20984;43.508;1.504;2022-07-04T10:19:06;8.07;;;4.63;;
34765;SDS011;20984;43.508;1.504;2022-07-04T10:21:33;7.38;;;4.63;;
34765;SDS011;20984;43.508;1.504;2022-07-04T10:24:00;7.82;;;4.65;;
34765;SDS011;20984;43.508;1.504;2022-07-04T10:26:28;8.40;;;4.53;;
34765;SDS011;20984;43.508;1.504;2022-07-04T10:28:55;7.38;;;4.35;;
34765;SDS011;20984;43.508;1.504;2022-07-04T10:31:22;11.70;;;5.30;;
34765;SDS011;20984;43.508;1.504;2022-07-04T10:33:50;5.97;;;3.95;;
34765;SDS011;20984;43.508;1.504;2022-07-04T10:36:18;10.73;;;4.68;;
34765;SDS011;20984;43.508;1.504;2022-07-04T10:39:06;9.57;;;4.60;;
34765;SDS011;20984;43.508;1.504;2022-07-04T10:41:31;8.40;;;4.50;;
34765;SDS011;20984;43.508;1.504;2022-07-04T10:43:58;7.40;;;4.75;;
34765;SDS011;20984;43.508;1.504;2022-07-04T10:46:33;12.70;;;4.50;;
34765;SDS011;20984;43.508;1.504;2022-07-04T10:51:42;9.57;;;4.85;;
34765;SDS011;20984;43.508;1.504;2022-07-04T10:54:18;10.35;;;4.30;;
34765;SDS011;20984;43.508;1.504;2022-07-04T10:56:54;7.88;;;4.30;;
34765;SDS011;20984;43.508;1.504;2022-07-04T10:59:26;5.40;;;4.07;;
34765;SDS011;20984;43.508;1.504;2022-07-04T11:04:47;9.20;;;3.88;;
34765;SDS011;20984;43.508;1.504;2022-07-04T11:08:01;9.05;;;4.50;;
34765;SDS011;20984;43.508;1.504;2022-07-04T11:17:54;6.78;;;4.15;;
34765;SDS011;20984;43.508;1.504;2022-07-04T11:20:20;5.53;;;3.40;;
34765;SDS011;20984;43.508;1.504;2022-07-04T11:22:47;5.90;;;3.50;;
34765;SDS011;20984;43.508;1.504;2022-07-04T11:25:13;8.70;;;3.53;;
34765;SDS011;20984;43.508;1.504;2022-07-04T11:27:40;5.25;;;3.13;;
34765;SDS011;20984;43.508;1.504;2022-07-04T11:30:07;6.35;;;2.97;;
34765;SDS011;20984;43.508;1.504;2022-07-04T11:32:34;3.40;;;2.72;;
34765;SDS011;20984;43.508;1.504;2022-07-04T11:35:03;6.82;;;3.03;;
34765;SDS011;20984;43.508;1.504;2022-07-04T11:37:30;6.50;;;3.20;;
34765;SDS011;20984;43.508;1.504;2022-07-04T11:39:57;6.45;;;3.10;;
34765;SDS011;20984;43.508;1.504;2022-07-04T11:45:48;8.60;;;3.28;;
34765;SDS011;20984;43.508;1.504;2022-07-04T11:48:24;8.32;;;2.45;;
34765;SDS011;20984;43.508;1.504;2022-07-04T11:50:51;7.00;;;3.45;;
34765;SDS011;20984;43.508;1.504;2022-07-04T11:53:18;6.07;;;2.92;;
34765;SDS011;20984;43.508;1.504;2022-07-04T11:55:54;5.80;;;2.90;;
34765;SDS011;20984;43.508;1.504;2022-07-04T11:58:21;10.65;;;3.47;;
34765;SDS011;20984;43.508;1.504;2022-07-04T12:00:47;6.95;;;2.83;;
34765;SDS011;20984;43.508;1.504;2022-07-04T12:03:13;7.20;;;2.97;;
34765;SDS011;20984;43.508;1.504;2022-07-04T12:05:39;5.07;;;2.78;;
34765;SDS011;20984;43.508;1.504;2022-07-04T12:08:05;7.03;;;3.10;;
34765;SDS011;20984;43.508;1.504;2022-07-04T12:10:33;4.97;;;2.58;;
34765;SDS011;20984;43.508;1.504;2022-07-04T12:13:00;8.30;;;3.42;;
34765;SDS011;20984;43.508;1.504;2022-07-04T12:15:38;5.82;;;2.55;;
34765;SDS011;20984;43.508;1.504;2022-07-04T12:18:13;6.10;;;3.03;;
34765;SDS011;20984;43.508;1.504;2022-07-04T12:20:44;5.60;;;3.63;;
34765;SDS011;20984;43.508;1.504;2022-07-04T12:23:11;4.45;;;3.10;;
34765;SDS011;20984;43.508;1.504;2022-07-04T12:25:37;7.72;;;3.22;;
34765;SDS011;20984;43.508;1.504;2022-07-04T12:28:05;8.20;;;2.83;;
34765;SDS011;20984;43.508;1.504;2022-07-04T12:30:39;7.30;;;3.00;;
34765;SDS011;20984;43.508;1.504;2022-07-04T12:33:22;6.32;;;2.92;;
34765;SDS011;20984;43.508;1.504;2022-07-04T12:35:50;5.45;;;2.85;;
34765;SDS011;20984;43.508;1.504;2022-07-04T12:40:54;8.48;;;3.15;;
34765;SDS011;20984;43.508;1.504;2022-07-04T12:43:22;3.65;;;2.65;;
34765;SDS011;20984;43.508;1.504;2022-07-04T12:45:50;6.70;;;3.00;;
34765;SDS011;20984;43.508;1.504;2022-07-04T12:48:24;9.52;;;2.83;;
34765;SDS011;20984;43.508;1.504;2022-07-04T12:51:09;6.85;;;3.35;;
34765;SDS011;20984;43.508;1.504;2022-07-04T12:53:37;5.50;;;2.75;;
34765;SDS011;20984;43.508;1.504;2022-07-04T12:58:33;6.05;;;3.08;;
34765;SDS011;20984;43.508;1.504;2022-07-04T13:00:59;5.38;;;2.97;;
34765;SDS011;20984;43.508;1.504;2022-07-04T13:03:25;8.48;;;2.97;;
34765;SDS011;20984;43.508;1.504;2022-07-04T13:05:51;9.60;;;2.88;;
34765;SDS011;20984;43.508;1.504;2022-07-04T13:08:17;4.75;;;2.58;;
34765;SDS011;20984;43.508;1.504;2022-07-04T13:10:43;6.28;;;2.35;;
34765;SDS011;20984;43.508;1.504;2022-07-04T13:13:09;5.80;;;2.50;;
34765;SDS011;20984;43.508;1.504;2022-07-04T13:15:34;6.40;;;2.70;;
34765;SDS011;20984;43.508;1.504;2022-07-04T13:18:00;6.05;;;2.40;;
34765;SDS011;20984;43.508;1.504;2022-07-04T13:20:26;9.50;;;2.60;;
34765;SDS011;20984;43.508;1.504;2022-07-04T13:22:52;3.55;;;2.00;;
34765;SDS011;20984;43.508;1.504;2022-07-04T13:25:18;5.05;;;2.65;;
34765;SDS011;20984;43.508;1.504;2022-07-04T13:27:44;4.65;;;2.50;;
34765;SDS011;20984;43.508;1.504;2022-07-04T13:30:10;5.65;;;2.58;;
34765;SDS011;20984;43.508;1.504;2022-07-04T13:32:37;7.82;;;2.97;;
34765;SDS011;20984;43.508;1.504;2022-07-04T13:35:04;4.18;;;2.13;;
34765;SDS011;20984;43.508;1.504;2022-07-04T13:37:30;4.35;;;2.67;;
34765;SDS011;20984;43.508;1.504;2022-07-04T13:39:56;5.13;;;2.85;;
34765;SDS011;20984;43.508;1.504;2022-07-04T13:42:22;6.88;;;2.75;;
34765;SDS011;20984;43.508;1.504;2022-07-04T13:45:07;6.55;;;2.95;;
34765;SDS011;20984;43.508;1.504;2022-07-04T13:47:33;3.00;;;2.28;;
34765;SDS011;20984;43.508;1.504;2022-07-04T13:49:59;7.82;;;2.25;;
34765;SDS011;20984;43.508;1.504;2022-07-04T13:52:25;12.20;;;2.80;;
34765;SDS011;20984;43.508;1.504;2022-07-04T13:54:52;5.47;;;2.17;;
34765;SDS011;20984;43.508;1.504;2022-07-04T13:57:17;3.95;;;1.73;;
34765;SDS011;20984;43.508;1.504;2022-07-04T13:59:44;4.10;;;2.72;;
34765;SDS011;20984;43.508;1.504;2022-07-04T14:02:10;6.07;;;2.22;;
34765;SDS011;20984;43.508;1.504;2022-07-04T14:04:35;7.80;;;2.60;;
34765;SDS011;20984;43.508;1.504;2022-07-04T14:07:01;3.45;;;2.20;;
34765;SDS011;20984;43.508;1.504;2022-07-04T14:09:27;3.92;;;2.28;;
34765;SDS011;20984;43.508;1.504;2022-07-04T14:11:53;8.32;;;2.65;;
34765;SDS011;20984;43.508;1.504;2022-07-04T14:14:19;7.20;;;2.42;;
34765;SDS011;20984;43.508;1.504;2022-07-04T14:16:45;9.60;;;2.38;;
34765;SDS011;20984;43.508;1.504;2022-07-04T14:19:11;5.55;;;2.33;;
34765;SDS011;20984;43.508;1.504;2022-07-04T14:21:37;5.13;;;2.10;;
34765;SDS011;20984;43.508;1.504;2022-07-04T14:24:03;4.78;;;2.10;;
34765;SDS011;20984;43.508;1.504;2022-07-04T14:26:29;5.18;;;2.05;;
34765;SDS011;20984;43.508;1.504;2022-07-04T14:28:55;5.80;;;1.85;;
34765;SDS011;20984;43.508;1.504;2022-07-04T14:31:20;7.30;;;2.08;;
34765;SDS011;20984;43.508;1.504;2022-07-04T14:33:46;5.60;;;2.10;;
34765;SDS011;20984;43.508;1.504;2022-07-04T14:36:12;6.05;;;2.88;;
34765;SDS011;20984;43.508;1.504;2022-07-04T14:38:38;5.70;;;2.25;;
34765;SDS011;20984;43.508;1.504;2022-07-04T14:41:04;5.35;;;1.77;;
34765;SDS011;20984;43.508;1.504;2022-07-04T14:43:42;3.35;;;1.65;;
34765;SDS011;20984;43.508;1.504;2022-07-04T14:46:09;5.80;;;1.77;;
34765;SDS011;20984;43.508;1.504;2022-07-04T14:48:35;5.10;;;2.17;;
34765;SDS011;20984;43.508;1.504;2022-07-04T14:51:02;4.43;;;1.85;;
34765;SDS011;20984;43.508;1.504;2022-07-04T14:53:29;5.90;;;1.63;;
34765;SDS011;20984;43.508;1.504;2022-07-04T14:55:55;6.15;;;1.45;;
34765;SDS011;20984;43.508;1.504;2022-07-04T14:58:21;4.70;;;1.45;;
34765;SDS011;20984;43.508;1.504;2022-07-04T15:00:47;5.93;;;1.45;;
34765;SDS011;20984;43.508;1.504;2022-07-04T15:03:12;4.18;;;1.52;;
34765;SDS011;20984;43.508;1.504;2022-07-04T15:05:38;4.18;;;1.30;;
34765;SDS011;20984;43.508;1.504;2022-07-04T15:08:04;7.03;;;1.83;;
34765;SDS011;20984;43.508;1.504;2022-07-04T15:10:30;8.07;;;1.50;;